sensor_id;sensor_type;location;lat;lon;timestamp;pressure;altitude;pressure_sealevel;temperature;humidity
47716;BME280;33476;50.984;3.538;2023-12-28T00:01:11;101036.56;;;12.82;68.38
47716;BME280;33476;50.984;3.538;2023-12-28T00:03:37;101041.75;;;12.83;68.39
47716;BME280;33476;50.984;3.538;2023-12-28T00:06:02;101039.16;;;12.83;68.32
47716;BME280;33476;50.984;3.538;2023-12-28T00:08:28;101043.53;;;12.83;68.44
47716;BME280;33476;50.984;3.538;2023-12-28T00:10:53;101053.16;;;12.82;68.96
47716;BME280;33476;50.984;3.538;2023-12-28T00:13:18;101051.47;;;12.81;68.83
47716;BME280;33476;50.984;3.538;2023-12-28T00:15:44;101046.16;;;12.83;68.56
47716;BME280;33476;50.984;3.538;2023-12-28T00:18:09;101052.41;;;12.80;68.99
47716;BME280;33476;50.984;3.538;2023-12-28T00:20:34;101049.63;;;12.83;69.10
47716;BME280;33476;50.984;3.538;2023-12-28T00:23:00;101048.59;;;12.86;68.87
47716;BME280;33476;50.984;3.538;2023-12-28T00:25:26;101047.50;;;12.90;68.67
47716;BME280;33476;50.984;3.538;2023-12-28T00:27:51;101055.38;;;12.90;68.88
47716;BME280;33476;50.984;3.538;2023-12-28T00:30:17;101056.22;;;12.90;68.86
47716;BME280;33476;50.984;3.538;2023-12-28T00:32:45;101063.50;;;12.85;68.94
47716;BME280;33476;50.984;3.538;2023-12-28T00:35:11;101059.19;;;12.84;69.25
47716;BME280;33476;50.984;3.538;2023-12-28T00:37:36;101060.25;;;12.80;69.03
47716;BME280;33476;50.984;3.538;2023-12-28T00:40:02;101062.88;;;12.80;69.33
47716;BME280;33476;50.984;3.538;2023-12-28T00:42:28;101058.41;;;12.82;69.50
47716;BME280;33476;50.984;3.538;2023-12-28T00:44:53;101045.38;;;12.81;69.33
47716;BME280;33476;50.984;3.538;2023-12-28T00:47:19;101049.78;;;12.80;69.35
47716;BME280;33476;50.984;3.538;2023-12-28T00:49:44;101049.78;;;12.80;69.55
47716;BME280;33476;50.984;3.538;2023-12-28T00:52:09;101058.66;;;12.78;69.21
47716;BME280;33476;50.984;3.538;2023-12-28T00:54:36;101056.88;;;12.78;69.81
47716;BME280;33476;50.984;3.538;2023-12-28T00:57:04;101063.91;;;12.78;69.54
47716;BME280;33476;50.984;3.538;2023-12-28T00:59:30;101052.56;;;12.77;69.22
47716;BME280;33476;50.984;3.538;2023-12-28T01:01:56;101066.59;;;12.76;69.53
47716;BME280;33476;50.984;3.538;2023-12-28T01:04:21;101074.56;;;12.75;69.47
47716;BME280;33476;50.984;3.538;2023-12-28T01:06:49;101070.22;;;12.74;69.92
47716;BME280;33476;50.984;3.538;2023-12-28T01:09:15;101079.84;;;12.73;69.87
47716;BME280;33476;50.984;3.538;2023-12-28T01:11:41;101069.53;;;12.70;69.63
47716;BME280;33476;50.984;3.538;2023-12-28T01:14:07;101076.56;;;12.70;69.75
47716;BME280;33476;50.984;3.538;2023-12-28T01:16:32;101077.50;;;12.69;70.25
47716;BME280;33476;50.984;3.538;2023-12-28T01:18:58;101078.56;;;12.64;70.01
47716;BME280;33476;50.984;3.538;2023-12-28T01:21:23;101075.09;;;12.64;70.28
47716;BME280;33476;50.984;3.538;2023-12-28T01:23:50;101075.19;;;12.62;69.91
47716;BME280;33476;50.984;3.538;2023-12-28T01:26:16;101088.38;;;12.61;70.24
47716;BME280;33476;50.984;3.538;2023-12-28T01:28:42;101084.19;;;12.57;70.77
47716;BME280;33476;50.984;3.538;2023-12-28T01:31:08;101085.03;;;12.57;70.77
47716;BME280;33476;50.984;3.538;2023-12-28T01:33:34;101089.44;;;12.57;70.54
47716;BME280;33476;50.984;3.538;2023-12-28T01:36:01;101081.66;;;12.55;70.76
47716;BME280;33476;50.984;3.538;2023-12-28T01:38:26;101087.66;;;12.57;70.88
47716;BME280;33476;50.984;3.538;2023-12-28T01:40:51;101080.50;;;12.61;70.48
47716;BME280;33476;50.984;3.538;2023-12-28T01:43:17;101084.59;;;12.67;70.71
47716;BME280;33476;50.984;3.538;2023-12-28T01:45:42;101078.56;;;12.64;70.50
47716;BME280;33476;50.984;3.538;2023-12-28T01:48:08;101090.16;;;12.60;70.62
47716;BME280;33476;50.984;3.538;2023-12-28T01:50:34;101091.06;;;12.59;70.60
47716;BME280;33476;50.984;3.538;2023-12-28T01:53:00;101089.59;;;12.54;71.13
47716;BME280;33476;50.984;3.538;2023-12-28T01:55:27;101086.22;;;12.52;71.04
47716;BME280;33476;50.984;3.538;2023-12-28T01:57:54;101087.84;;;12.54;70.95
47716;BME280;33476;50.984;3.538;2023-12-28T02:00:21;101083.34;;;12.56;70.91
47716;BME280;33476;50.984;3.538;2023-12-28T02:02:48;101091.16;;;12.58;70.53
47716;BME280;33476;50.984;3.538;2023-12-28T02:05:14;101093.06;;;12.54;71.08
47716;BME280;33476;50.984;3.538;2023-12-28T02:07:40;101097.47;;;12.54;71.01
47716;BME280;33476;50.984;3.538;2023-12-28T02:10:06;101100.84;;;12.56;70.90
47716;BME280;33476;50.984;3.538;2023-12-28T02:12:32;101099.16;;;12.55;71.18
47716;BME280;33476;50.984;3.538;2023-12-28T02:14:58;101092.31;;;12.52;71.08
47716;BME280;33476;50.984;3.538;2023-12-28T02:17:30;101090.09;;;12.45;70.99
47716;BME280;33476;50.984;3.538;2023-12-28T02:19:59;101095.06;;;12.49;70.94
47716;BME280;33476;50.984;3.538;2023-12-28T02:22:26;101098.50;;;12.51;70.84
47716;BME280;33476;50.984;3.538;2023-12-28T02:25:08;101083.69;;;12.50;70.74
47716;BME280;33476;50.984;3.538;2023-12-28T02:27:45;101088.09;;;12.50;70.89
47716;BME280;33476;50.984;3.538;2023-12-28T02:30:16;101087.00;;;12.54;71.00
47716;BME280;33476;50.984;3.538;2023-12-28T02:35:44;101071.75;;;12.45;70.88
47716;BME280;33476;50.984;3.538;2023-12-28T02:38:13;101089.25;;;12.44;70.98
47716;BME280;33476;50.984;3.538;2023-12-28T02:40:40;101074.19;;;12.48;70.72
47716;BME280;33476;50.984;3.538;2023-12-28T02:43:10;101079.84;;;12.40;71.27
47716;BME280;33476;50.984;3.538;2023-12-28T02:45:36;101074.84;;;12.35;71.13
47716;BME280;33476;50.984;3.538;2023-12-28T02:48:03;101085.06;;;12.40;70.89
47716;BME280;33476;50.984;3.538;2023-12-28T02:50:28;101082.44;;;12.40;71.17
47716;BME280;33476;50.984;3.538;2023-12-28T02:52:56;101088.63;;;12.39;71.07
47716;BME280;33476;50.984;3.538;2023-12-28T02:55:22;101081.38;;;12.44;70.98
47716;BME280;33476;50.984;3.538;2023-12-28T02:57:49;101085.03;;;12.42;71.18
47716;BME280;33476;50.984;3.538;2023-12-28T03:00:15;101077.06;;;12.43;70.89
47716;BME280;33476;50.984;3.538;2023-12-28T03:02:41;101088.22;;;12.47;71.13
47716;BME280;33476;50.984;3.538;2023-12-28T03:05:07;101100.03;;;12.38;71.48
47716;BME280;33476;50.984;3.538;2023-12-28T03:07:35;101091.41;;;12.36;71.26
47716;BME280;33476;50.984;3.538;2023-12-28T03:10:02;101087.69;;;12.40;71.25
47716;BME280;33476;50.984;3.538;2023-12-28T03:12:31;101079.78;;;12.42;71.37
47716;BME280;33476;50.984;3.538;2023-12-28T03:14:56;101080.28;;;12.48;70.89
47716;BME280;33476;50.984;3.538;2023-12-28T03:17:22;101090.63;;;12.51;70.54
47716;BME280;33476;50.984;3.538;2023-12-28T03:19:47;101078.38;;;12.52;70.53
47716;BME280;33476;50.984;3.538;2023-12-28T03:22:13;101081.84;;;12.52;70.34
47716;BME280;33476;50.984;3.538;2023-12-28T03:24:39;101083.00;;;12.47;70.66
47716;BME280;33476;50.984;3.538;2023-12-28T03:27:05;101088.41;;;12.44;70.62
47716;BME280;33476;50.984;3.538;2023-12-28T03:29:31;101082.44;;;12.40;70.67
47716;BME280;33476;50.984;3.538;2023-12-28T03:31:56;101093.09;;;12.37;70.62
47716;BME280;33476;50.984;3.538;2023-12-28T03:34:22;101092.09;;;12.40;70.59
47716;BME280;33476;50.984;3.538;2023-12-28T03:36:49;101094.78;;;12.38;70.32
47716;BME280;33476;50.984;3.538;2023-12-28T03:39:14;101086.75;;;12.41;70.47
47716;BME280;33476;50.984;3.538;2023-12-28T03:41:40;101082.41;;;12.42;70.26
47716;BME280;33476;50.984;3.538;2023-12-28T03:44:05;101093.47;;;12.47;70.08
47716;BME280;33476;50.984;3.538;2023-12-28T03:46:30;101090.75;;;12.48;69.76
47716;BME280;33476;50.984;3.538;2023-12-28T03:48:56;101088.94;;;12.50;69.80
47716;BME280;33476;50.984;3.538;2023-12-28T03:51:21;101089.84;;;12.49;69.77
47716;BME280;33476;50.984;3.538;2023-12-28T03:53:47;101090.72;;;12.50;69.78
47716;BME280;33476;50.984;3.538;2023-12-28T03:56:26;101095.16;;;12.48;69.58
47716;BME280;33476;50.984;3.538;2023-12-28T03:58:52;101094.00;;;12.53;69.00
47716;BME280;33476;50.984;3.538;2023-12-28T04:01:18;101097.47;;;12.54;68.99
47716;BME280;33476;50.984;3.538;2023-12-28T04:03:44;101095.78;;;12.53;68.87
47716;BME280;33476;50.984;3.538;2023-12-28T04:06:09;101088.00;;;12.51;69.25
47716;BME280;33476;50.984;3.538;2023-12-28T04:08:35;101094.94;;;12.52;68.67
47716;BME280;33476;50.984;3.538;2023-12-28T04:11:00;101116.56;;;12.56;68.75
47716;BME280;33476;50.984;3.538;2023-12-28T04:13:26;101079.75;;;12.59;68.68
47716;BME280;33476;50.984;3.538;2023-12-28T04:15:51;101081.66;;;12.55;68.40
47716;BME280;33476;50.984;3.538;2023-12-28T04:18:16;101080.81;;;12.55;68.49
47716;BME280;33476;50.984;3.538;2023-12-28T04:20:42;101080.38;;;12.47;68.60
47716;BME280;33476;50.984;3.538;2023-12-28T04:23:08;101077.66;;;12.48;68.27
47716;BME280;33476;50.984;3.538;2023-12-28T04:25:33;101077.63;;;12.50;68.01
47716;BME280;33476;50.984;3.538;2023-12-28T04:27:58;101082.84;;;12.50;68.13
47716;BME280;33476;50.984;3.538;2023-12-28T04:30:24;101092.63;;;12.46;68.18
47716;BME280;33476;50.984;3.538;2023-12-28T04:32:49;101099.84;;;12.41;68.69
47716;BME280;33476;50.984;3.538;2023-12-28T04:35:14;101119.13;;;12.40;68.35
47716;BME280;33476;50.984;3.538;2023-12-28T04:37:40;101113.66;;;12.45;68.45
47716;BME280;33476;50.984;3.538;2023-12-28T04:40:05;101114.34;;;12.48;68.19
47716;BME280;33476;50.984;3.538;2023-12-28T04:42:31;101121.34;;;12.48;68.36
47716;BME280;33476;50.984;3.538;2023-12-28T04:44:56;101127.53;;;12.47;68.55
47716;BME280;33476;50.984;3.538;2023-12-28T04:47:22;101102.94;;;12.49;68.34
47716;BME280;33476;50.984;3.538;2023-12-28T04:49:47;101101.09;;;12.51;68.18
47716;BME280;33476;50.984;3.538;2023-12-28T04:52:12;101107.19;;;12.52;68.11
47716;BME280;33476;50.984;3.538;2023-12-28T04:54:40;101105.56;;;12.49;68.38
47716;BME280;33476;50.984;3.538;2023-12-28T04:57:06;101101.88;;;12.53;68.12
47716;BME280;33476;50.984;3.538;2023-12-28T04:59:38;101096.84;;;12.49;68.17
47716;BME280;33476;50.984;3.538;2023-12-28T05:02:03;101094.31;;;12.47;68.48
47716;BME280;33476;50.984;3.538;2023-12-28T05:04:28;101096.84;;;12.49;68.29
47716;BME280;33476;50.984;3.538;2023-12-28T05:06:54;101111.97;;;12.44;68.54
47716;BME280;33476;50.984;3.538;2023-12-28T05:09:19;101099.34;;;12.34;68.77
47716;BME280;33476;50.984;3.538;2023-12-28T05:11:44;101099.25;;;12.36;68.73
47716;BME280;33476;50.984;3.538;2023-12-28T05:14:10;101100.03;;;12.38;68.53
47716;BME280;33476;50.984;3.538;2023-12-28T05:16:35;101107.03;;;12.37;68.59
47716;BME280;33476;50.984;3.538;2023-12-28T05:19:01;101095.72;;;12.37;68.43
47716;BME280;33476;50.984;3.538;2023-12-28T05:21:26;101089.72;;;12.35;68.46
47716;BME280;33476;50.984;3.538;2023-12-28T05:23:52;101099.25;;;12.36;68.45
47716;BME280;33476;50.984;3.538;2023-12-28T05:26:17;101092.34;;;12.35;68.46
47716;BME280;33476;50.984;3.538;2023-12-28T05:28:42;101105.34;;;12.36;68.57
47716;BME280;33476;50.984;3.538;2023-12-28T05:31:08;101100.97;;;12.37;68.26
47716;BME280;33476;50.984;3.538;2023-12-28T05:33:33;101107.28;;;12.33;68.24
47716;BME280;33476;50.984;3.538;2023-12-28T05:35:58;101104.41;;;12.37;68.13
47716;BME280;33476;50.984;3.538;2023-12-28T05:38:24;101098.34;;;12.37;68.09
47716;BME280;33476;50.984;3.538;2023-12-28T05:40:49;101089.84;;;12.32;68.17
47716;BME280;33476;50.984;3.538;2023-12-28T05:43:14;101094.78;;;12.21;68.69
47716;BME280;33476;50.984;3.538;2023-12-28T05:45:40;101105.44;;;12.18;68.45
47716;BME280;33476;50.984;3.538;2023-12-28T05:48:06;101098.44;;;12.18;68.40
47716;BME280;33476;50.984;3.538;2023-12-28T05:50:32;101099.19;;;12.20;68.30
47716;BME280;33476;50.984;3.538;2023-12-28T05:52:57;101110.50;;;12.21;68.06
47716;BME280;33476;50.984;3.538;2023-12-28T05:55:23;101104.34;;;12.22;68.01
47716;BME280;33476;50.984;3.538;2023-12-28T05:57:49;101103.78;;;12.15;68.18
47716;BME280;33476;50.984;3.538;2023-12-28T06:00:14;101096.78;;;12.16;68.16
47716;BME280;33476;50.984;3.538;2023-12-28T06:02:40;101091.56;;;12.16;68.38
47716;BME280;33476;50.984;3.538;2023-12-28T06:05:06;101103.78;;;12.15;68.36
47716;BME280;33476;50.984;3.538;2023-12-28T06:07:32;101100.19;;;12.18;67.94
47716;BME280;33476;50.984;3.538;2023-12-28T06:09:57;101096.66;;;12.19;67.78
47716;BME280;33476;50.984;3.538;2023-12-28T06:12:23;101108.97;;;12.17;67.82
47716;BME280;33476;50.984;3.538;2023-12-28T06:14:48;101118.59;;;12.16;67.82
47716;BME280;33476;50.984;3.538;2023-12-28T06:17:13;101128.28;;;12.14;67.87
47716;BME280;33476;50.984;3.538;2023-12-28T06:19:41;101124.22;;;12.08;68.07
47716;BME280;33476;50.984;3.538;2023-12-28T06:22:06;101123.50;;;12.05;67.82
47716;BME280;33476;50.984;3.538;2023-12-28T06:24:31;101130.53;;;12.04;67.96
47716;BME280;33476;50.984;3.538;2023-12-28T06:26:57;101131.38;;;12.05;68.16
47716;BME280;33476;50.984;3.538;2023-12-28T06:29:22;101137.31;;;12.08;67.95
47716;BME280;33476;50.984;3.538;2023-12-28T06:31:48;101145.94;;;12.11;67.75
47716;BME280;33476;50.984;3.538;2023-12-28T06:34:13;101150.44;;;12.07;68.04
47716;BME280;33476;50.984;3.538;2023-12-28T06:36:39;101148.16;;;12.01;67.84
47716;BME280;33476;50.984;3.538;2023-12-28T06:39:04;101149.84;;;12.02;68.02
47716;BME280;33476;50.984;3.538;2023-12-28T06:41:29;101156.69;;;12.04;67.75
47716;BME280;33476;50.984;3.538;2023-12-28T06:43:55;101163.03;;;12.00;68.11
47716;BME280;33476;50.984;3.538;2023-12-28T06:46:20;101162.31;;;11.97;68.21
47716;BME280;33476;50.984;3.538;2023-12-28T06:48:46;101169.38;;;11.95;68.13
47716;BME280;33476;50.984;3.538;2023-12-28T06:51:19;101163.38;;;11.93;67.91
47716;BME280;33476;50.984;3.538;2023-12-28T06:53:46;101169.38;;;11.95;67.83
47716;BME280;33476;50.984;3.538;2023-12-28T06:56:11;101176.31;;;11.96;67.97
47716;BME280;33476;50.984;3.538;2023-12-28T06:58:37;101166.53;;;11.99;67.70
47716;BME280;33476;50.984;3.538;2023-12-28T07:01:03;101176.97;;;12.01;67.81
47716;BME280;33476;50.984;3.538;2023-12-28T07:03:29;101162.84;;;12.03;67.58
47716;BME280;33476;50.984;3.538;2023-12-28T07:06:00;101169.63;;;12.07;67.43
47716;BME280;33476;50.984;3.538;2023-12-28T07:08:25;101174.94;;;12.06;67.30
47716;BME280;33476;50.984;3.538;2023-12-28T07:10:51;101179.13;;;12.10;67.36
47716;BME280;33476;50.984;3.538;2023-12-28T07:13:16;101185.28;;;12.09;67.19
47716;BME280;33476;50.984;3.538;2023-12-28T07:15:42;101185.97;;;12.13;67.19
47716;BME280;33476;50.984;3.538;2023-12-28T07:18:07;101182.50;;;12.12;67.06
47716;BME280;33476;50.984;3.538;2023-12-28T07:20:33;101182.50;;;12.12;67.23
47716;BME280;33476;50.984;3.538;2023-12-28T07:22:58;101177.97;;;12.16;66.98
47716;BME280;33476;50.984;3.538;2023-12-28T07:25:23;101184.00;;;12.18;67.07
47716;BME280;33476;50.984;3.538;2023-12-28T07:27:49;101176.19;;;12.16;66.93
47716;BME280;33476;50.984;3.538;2023-12-28T07:30:14;101175.41;;;12.14;67.03
47716;BME280;33476;50.984;3.538;2023-12-28T07:32:41;101169.56;;;12.09;67.28
47716;BME280;33476;50.984;3.538;2023-12-28T07:35:07;101181.88;;;12.07;67.30
47716;BME280;33476;50.984;3.538;2023-12-28T07:37:32;101185.66;;;12.01;67.39
47716;BME280;33476;50.984;3.538;2023-12-28T07:39:58;101187.44;;;12.01;67.41
47716;BME280;33476;50.984;3.538;2023-12-28T07:42:23;101192.03;;;11.96;67.24
47716;BME280;33476;50.984;3.538;2023-12-28T07:44:49;101181.63;;;11.94;67.23
47716;BME280;33476;50.984;3.538;2023-12-28T07:47:14;101181.38;;;11.99;66.85
47716;BME280;33476;50.984;3.538;2023-12-28T07:49:40;101183.81;;;12.03;66.66
47716;BME280;33476;50.984;3.538;2023-12-28T07:52:05;101191.50;;;12.06;66.52
47716;BME280;33476;50.984;3.538;2023-12-28T07:54:31;101193.34;;;12.04;66.74
47716;BME280;33476;50.984;3.538;2023-12-28T07:56:56;101183.56;;;12.08;66.65
47716;BME280;33476;50.984;3.538;2023-12-28T07:59:22;101192.50;;;12.04;66.46
47716;BME280;33476;50.984;3.538;2023-12-28T08:01:47;101208.13;;;12.05;66.51
47716;BME280;33476;50.984;3.538;2023-12-28T08:04:13;101192.72;;;11.99;66.39
47716;BME280;33476;50.984;3.538;2023-12-28T08:06:38;101205.97;;;11.96;66.71
47716;BME280;33476;50.984;3.538;2023-12-28T08:09:03;101210.34;;;11.96;67.08
47716;BME280;33476;50.984;3.538;2023-12-28T08:11:29;101204.94;;;11.99;67.06
47716;BME280;33476;50.984;3.538;2023-12-28T08:13:54;101207.56;;;11.99;67.11
47716;BME280;33476;50.984;3.538;2023-12-28T08:16:20;101210.06;;;12.02;66.80
47716;BME280;33476;50.984;3.538;2023-12-28T08:18:45;101206.88;;;11.95;67.17
47716;BME280;33476;50.984;3.538;2023-12-28T08:21:11;101216.34;;;11.98;67.10
47716;BME280;33476;50.984;3.538;2023-12-28T08:23:36;101213.44;;;12.04;67.26
47716;BME280;33476;50.984;3.538;2023-12-28T08:26:01;101209.69;;;12.09;66.78
47716;BME280;33476;50.984;3.538;2023-12-28T08:28:28;101216.38;;;12.15;67.02
47716;BME280;33476;50.984;3.538;2023-12-28T08:30:53;101225.66;;;12.22;66.75
47716;BME280;33476;50.984;3.538;2023-12-28T08:33:20;101226.22;;;12.29;66.57
47716;BME280;33476;50.984;3.538;2023-12-28T08:35:45;101226.00;;;12.33;66.61
47716;BME280;33476;50.984;3.538;2023-12-28T08:38:11;101222.53;;;12.33;66.92
47716;BME280;33476;50.984;3.538;2023-12-28T08:40:36;101225.84;;;12.36;66.63
47716;BME280;33476;50.984;3.538;2023-12-28T08:43:01;101217.75;;;12.41;66.42
47716;BME280;33476;50.984;3.538;2023-12-28T08:45:27;101229.09;;;12.42;66.48
47716;BME280;33476;50.984;3.538;2023-12-28T08:47:52;101231.56;;;12.45;66.36
47716;BME280;33476;50.984;3.538;2023-12-28T08:50:17;101230.78;;;12.43;66.71
47716;BME280;33476;50.984;3.538;2023-12-28T08:52:43;101230.84;;;12.41;66.51
47716;BME280;33476;50.984;3.538;2023-12-28T08:55:08;101237.09;;;12.38;66.73
47716;BME280;33476;50.984;3.538;2023-12-28T08:57:34;101244.72;;;12.43;66.79
47716;BME280;33476;50.984;3.538;2023-12-28T08:59:59;101241.88;;;12.48;66.44
47716;BME280;33476;50.984;3.538;2023-12-28T09:02:29;101244.50;;;12.48;66.82
47716;BME280;33476;50.984;3.538;2023-12-28T09:04:54;101254.22;;;12.46;66.54
47716;BME280;33476;50.984;3.538;2023-12-28T09:07:20;101241.66;;;12.52;66.62
47716;BME280;33476;50.984;3.538;2023-12-28T09:09:45;101251.47;;;12.66;66.51
47716;BME280;33476;50.984;3.538;2023-12-28T09:12:11;101236.97;;;12.76;65.92
47716;BME280;33476;50.984;3.538;2023-12-28T09:14:37;101256.00;;;12.80;66.06
47716;BME280;33476;50.984;3.538;2023-12-28T09:17:03;101238.41;;;12.82;65.60
47716;BME280;33476;50.984;3.538;2023-12-28T09:19:28;101245.44;;;12.81;65.54
47716;BME280;33476;50.984;3.538;2023-12-28T09:21:53;101256.69;;;13.01;65.32
47716;BME280;33476;50.984;3.538;2023-12-28T09:24:19;101257.16;;;13.26;65.16
47716;BME280;33476;50.984;3.538;2023-12-28T09:26:44;101254.84;;;13.53;64.56
47716;BME280;33476;50.984;3.538;2023-12-28T09:29:10;101264.88;;;13.62;63.82
47716;BME280;33476;50.984;3.538;2023-12-28T09:31:36;101256.22;;;13.60;63.75
47716;BME280;33476;50.984;3.538;2023-12-28T09:34:02;101263.69;;;13.68;63.90
47716;BME280;33476;50.984;3.538;2023-12-28T09:36:30;101264.97;;;13.76;63.43
47716;BME280;33476;50.984;3.538;2023-12-28T09:38:55;101276.00;;;13.83;63.14
47716;BME280;33476;50.984;3.538;2023-12-28T09:41:22;101274.66;;;13.92;62.72
47716;BME280;33476;50.984;3.538;2023-12-28T09:43:54;101265.56;;;13.97;62.68
47716;BME280;33476;50.984;3.538;2023-12-28T09:46:24;101278.38;;;14.03;62.24
47716;BME280;33476;50.984;3.538;2023-12-28T09:48:51;101285.66;;;14.14;62.00
47716;BME280;33476;50.984;3.538;2023-12-28T09:51:19;101295.75;;;14.22;61.63
47716;BME280;33476;50.984;3.538;2023-12-28T09:53:45;101290.66;;;14.19;61.63
47716;BME280;33476;50.984;3.538;2023-12-28T09:56:12;101300.31;;;14.18;61.23
47716;BME280;33476;50.984;3.538;2023-12-28T09:58:39;101294.56;;;14.12;61.27
47716;BME280;33476;50.984;3.538;2023-12-28T10:01:05;101291.84;;;13.97;61.47
47716;BME280;33476;50.984;3.538;2023-12-28T10:03:31;101303.63;;;13.90;61.91
47716;BME280;33476;50.984;3.538;2023-12-28T10:05:56;101299.25;;;13.73;61.76
47716;BME280;33476;50.984;3.538;2023-12-28T10:08:22;101304.16;;;13.64;62.27
47716;BME280;33476;50.984;3.538;2023-12-28T10:10:47;101307.88;;;13.60;62.10
47716;BME280;33476;50.984;3.538;2023-12-28T10:13:16;101306.09;;;13.60;62.41
47716;BME280;33476;50.984;3.538;2023-12-28T10:15:43;101303.69;;;13.56;62.32
47716;BME280;33476;50.984;3.538;2023-12-28T10:18:11;101312.28;;;13.59;62.14
47716;BME280;33476;50.984;3.538;2023-12-28T10:20:37;101310.72;;;13.55;62.48
47716;BME280;33476;50.984;3.538;2023-12-28T10:23:03;101305.75;;;13.51;62.34
47716;BME280;33476;50.984;3.538;2023-12-28T10:25:31;101306.72;;;13.48;62.73
47716;BME280;33476;50.984;3.538;2023-12-28T10:27:56;101309.28;;;13.49;62.67
47716;BME280;33476;50.984;3.538;2023-12-28T10:30:22;101310.38;;;13.45;62.67
47716;BME280;33476;50.984;3.538;2023-12-28T10:32:48;101289.78;;;13.38;62.47
47716;BME280;33476;50.984;3.538;2023-12-28T10:35:13;101294.63;;;13.45;62.54
47716;BME280;33476;50.984;3.538;2023-12-28T10:37:40;101286.44;;;13.52;62.37
47716;BME280;33476;50.984;3.538;2023-12-28T10:40:14;101290.84;;;13.51;62.17
47716;BME280;33476;50.984;3.538;2023-12-28T10:42:57;101298.19;;;13.44;62.56
47716;BME280;33476;50.984;3.538;2023-12-28T10:45:25;101272.56;;;13.49;62.29
47716;BME280;33476;50.984;3.538;2023-12-28T10:48:06;101263.53;;;13.38;62.57
47716;BME280;33476;50.984;3.538;2023-12-28T10:50:47;101260.91;;;13.38;62.63
47716;BME280;33476;50.984;3.538;2023-12-28T10:53:30;101270.38;;;13.40;62.71
47716;BME280;33476;50.984;3.538;2023-12-28T10:56:18;101253.56;;;13.44;62.31
47716;BME280;33476;50.984;3.538;2023-12-28T11:01:24;101252.66;;;13.61;62.04
47716;BME280;33476;50.984;3.538;2023-12-28T11:04:20;101242.28;;;13.75;61.93
47716;BME280;33476;50.984;3.538;2023-12-28T11:06:48;101253.78;;;13.89;61.18
47716;BME280;33476;50.984;3.538;2023-12-28T11:09:15;101252.09;;;13.88;61.61
47716;BME280;33476;50.984;3.538;2023-12-28T11:11:43;101250.84;;;13.95;61.38
47716;BME280;33476;50.984;3.538;2023-12-28T11:14:08;101249.38;;;14.05;61.22
47716;BME280;33476;50.984;3.538;2023-12-28T11:16:34;101243.19;;;14.06;61.19
47716;BME280;33476;50.984;3.538;2023-12-28T11:19:02;101240.66;;;14.04;60.89
47716;BME280;33476;50.984;3.538;2023-12-28T11:21:29;101230.44;;;14.16;60.64
47716;BME280;33476;50.984;3.538;2023-12-28T11:23:55;101224.91;;;14.20;60.80
47716;BME280;33476;50.984;3.538;2023-12-28T11:26:22;101235.81;;;14.28;60.63
47716;BME280;33476;50.984;3.538;2023-12-28T11:28:48;101229.63;;;14.29;60.32
47716;BME280;33476;50.984;3.538;2023-12-28T11:31:14;101224.97;;;14.34;59.82
47716;BME280;33476;50.984;3.538;2023-12-28T11:33:47;101235.47;;;14.34;60.08
47716;BME280;33476;50.984;3.538;2023-12-28T11:36:25;101228.09;;;14.41;60.08
47716;BME280;33476;50.984;3.538;2023-12-28T11:38:56;101214.38;;;14.36;59.62
47716;BME280;33476;50.984;3.538;2023-12-28T11:41:26;101224.13;;;14.34;59.80
47716;BME280;33476;50.984;3.538;2023-12-28T11:43:53;101219.81;;;14.33;59.80
47716;BME280;33476;50.984;3.538;2023-12-28T11:46:20;101219.38;;;14.41;59.61
47716;BME280;33476;50.984;3.538;2023-12-28T11:48:45;101214.13;;;14.41;59.57
47716;BME280;33476;50.984;3.538;2023-12-28T11:51:11;101212.41;;;14.40;59.10
47716;BME280;33476;50.984;3.538;2023-12-28T11:53:36;101208.75;;;14.42;59.28
47716;BME280;33476;50.984;3.538;2023-12-28T11:56:02;101211.13;;;14.47;59.36
47716;BME280;33476;50.984;3.538;2023-12-28T11:58:28;101191.97;;;14.45;59.06
47716;BME280;33476;50.984;3.538;2023-12-28T12:00:53;101201.63;;;14.44;59.06
47716;BME280;33476;50.984;3.538;2023-12-28T12:03:19;101202.47;;;14.45;58.95
47716;BME280;33476;50.984;3.538;2023-12-28T12:05:44;101198.50;;;14.53;59.09
47716;BME280;33476;50.984;3.538;2023-12-28T12:08:10;101187.81;;;14.56;58.65
47716;BME280;33476;50.984;3.538;2023-12-28T12:10:42;101195.31;;;14.63;58.44
47716;BME280;33476;50.984;3.538;2023-12-28T12:13:08;101185.75;;;14.61;58.37
47716;BME280;33476;50.984;3.538;2023-12-28T12:15:34;101190.06;;;14.63;58.46
47716;BME280;33476;50.984;3.538;2023-12-28T12:18:01;101187.22;;;14.51;58.28
47716;BME280;33476;50.984;3.538;2023-12-28T12:20:26;101187.59;;;14.45;58.35
47716;BME280;33476;50.984;3.538;2023-12-28T12:22:57;101177.66;;;14.34;58.39
47716;BME280;33476;50.984;3.538;2023-12-28T12:25:22;101189.38;;;14.29;58.45
47716;BME280;33476;50.984;3.538;2023-12-28T12:27:48;101186.25;;;14.22;58.63
47716;BME280;33476;50.984;3.538;2023-12-28T12:30:14;101191.69;;;14.19;58.70
47716;BME280;33476;50.984;3.538;2023-12-28T12:32:39;101199.22;;;14.25;58.33
47716;BME280;33476;50.984;3.538;2023-12-28T12:35:09;101190.09;;;14.17;58.35
47716;BME280;33476;50.984;3.538;2023-12-28T12:37:35;101186.63;;;14.16;58.39
47716;BME280;33476;50.984;3.538;2023-12-28T12:40:02;101213.03;;;14.13;58.21
47716;BME280;33476;50.984;3.538;2023-12-28T12:42:28;101176.44;;;14.10;57.99
47716;BME280;33476;50.984;3.538;2023-12-28T12:44:54;101182.34;;;14.14;58.07
47716;BME280;33476;50.984;3.538;2023-12-28T12:47:19;101188.88;;;14.06;58.22
47716;BME280;33476;50.984;3.538;2023-12-28T12:49:44;101170.44;;;14.08;58.03
47716;BME280;33476;50.984;3.538;2023-12-28T12:52:10;101175.69;;;14.08;58.13